createdAt,value
2022-12-08T00:00:34.033Z,24.00
2022-12-08T00:01:33.523Z,26.20
2022-12-08T00:02:33.933Z,21.20
2022-12-08T00:03:33.805Z,21.40
2022-12-08T00:04:33.470Z,22.70
2022-12-08T00:05:33.827Z,21.90
2022-12-08T00:06:33.538Z,25.10
2022-12-08T00:07:33.761Z,24.60
2022-12-08T00:08:34.114Z,21.80
2022-12-08T00:09:38.755Z,23.80
2022-12-08T00:10:49.044Z,24.40
2022-12-08T00:11:33.669Z,24.00
2022-12-08T00:12:33.858Z,24.80
2022-12-08T00:13:33.557Z,23.90
2022-12-08T00:14:34.580Z,24.50
2022-12-08T00:15:33.665Z,24.00
2022-12-08T00:16:32.728Z,28.40
2022-12-08T00:17:33.406Z,29.40
2022-12-08T00:18:33.598Z,22.50
2022-12-08T00:19:33.612Z,23.30
2022-12-08T00:20:33.516Z,25.70
2022-12-08T00:21:33.743Z,27.80
2022-12-08T00:22:33.490Z,26.00
2022-12-08T00:23:33.532Z,26.70
2022-12-08T00:24:33.425Z,31.20
2022-12-08T00:25:33.533Z,29.30
2022-12-08T00:26:33.490Z,29.90
2022-12-08T00:27:33.709Z,31.10
2022-12-08T00:28:33.422Z,29.50
2022-12-08T00:29:33.372Z,28.70
2022-12-08T00:30:33.371Z,30.50
2022-12-08T00:31:33.541Z,25.90
2022-12-08T00:32:33.541Z,27.00
2022-12-08T00:33:33.361Z,30.20
2022-12-08T00:34:33.238Z,27.00
2022-12-08T00:35:34.846Z,30.10
2022-12-08T00:36:33.355Z,29.40
2022-12-08T00:37:33.354Z,29.90
2022-12-08T00:38:34.028Z,30.60
2022-12-08T00:39:33.553Z,32.90
2022-12-08T00:40:33.443Z,31.00
2022-12-08T00:41:33.241Z,33.20
2022-12-08T00:42:33.217Z,31.90
2022-12-08T00:43:34.854Z,35.70
2022-12-08T00:44:33.530Z,36.10
2022-12-08T00:45:33.360Z,38.30
2022-12-08T00:46:33.241Z,36.30
2022-12-08T00:47:33.203Z,37.70
2022-12-08T00:48:33.245Z,37.80
2022-12-08T00:49:33.289Z,36.20
2022-12-08T00:50:33.228Z,36.40
2022-12-08T00:51:33.122Z,38.00
2022-12-08T00:52:33.285Z,39.00
2022-12-08T00:53:32.913Z,45.40
2022-12-08T00:54:33.603Z,40.50
2022-12-08T00:55:33.255Z,43.80
2022-12-08T00:56:33.144Z,40.00
2022-12-08T00:57:33.359Z,41.70
2022-12-08T00:58:33.066Z,37.90
2022-12-08T00:59:33.042Z,41.20
2022-12-08T01:00:33.510Z,42.50
2022-12-08T01:01:33.932Z,40.70
2022-12-08T01:02:33.072Z,35.40
2022-12-08T01:03:33.376Z,37.20
2022-12-08T01:04:33.174Z,37.80
2022-12-08T01:06:16.820Z,38.20
2022-12-08T01:07:16.453Z,37.40
2022-12-08T01:08:16.516Z,35.80
2022-12-08T01:09:16.687Z,38.70
2022-12-08T01:10:16.419Z,38.70
2022-12-08T01:11:16.832Z,38.30
2022-12-08T01:12:16.234Z,40.10
2022-12-08T01:13:16.423Z,37.50
2022-12-08T01:14:16.392Z,37.60
2022-12-08T01:15:16.444Z,35.60
2022-12-08T01:16:16.108Z,40.00
2022-12-08T01:17:16.222Z,40.40
2022-12-08T01:18:16.340Z,37.20
2022-12-08T01:19:16.252Z,36.60
2022-12-08T01:20:16.378Z,35.00
2022-12-08T01:21:16.492Z,36.80
2022-12-08T01:22:16.137Z,36.90
2022-12-08T01:23:16.781Z,34.50
2022-12-08T01:24:16.083Z,38.10
2022-12-08T01:25:16.121Z,36.40
2022-12-08T01:26:16.301Z,36.10
2022-12-08T01:27:16.291Z,36.30
2022-12-08T01:28:16.539Z,38.90
2022-12-08T01:29:16.123Z,39.00
2022-12-08T01:30:16.097Z,38.30
2022-12-08T01:31:16.943Z,37.90
2022-12-08T01:32:16.106Z,35.90
2022-12-08T01:33:16.305Z,37.60
2022-12-08T01:34:15.941Z,36.10
2022-12-08T01:35:16.130Z,35.80
2022-12-08T01:36:16.004Z,38.10
2022-12-08T01:37:18.886Z,38.20
2022-12-08T01:38:16.081Z,40.00
2022-12-08T01:39:16.221Z,39.00
2022-12-08T01:40:15.963Z,40.50
2022-12-08T01:41:16.290Z,37.90
2022-12-08T01:42:15.940Z,37.10
2022-12-08T01:43:16.500Z,39.40
2022-12-08T01:44:16.338Z,38.60
2022-12-08T01:45:16.195Z,40.70
2022-12-08T01:46:15.833Z,41.60
2022-12-08T01:47:15.788Z,42.60
2022-12-08T01:48:16.165Z,43.90
2022-12-08T01:49:17.525Z,42.20
2022-12-08T01:50:16.265Z,45.60
2022-12-08T01:51:15.764Z,43.20
2022-12-08T01:52:16.282Z,45.10
2022-12-08T01:53:15.838Z,43.40
2022-12-08T01:54:15.933Z,45.90
2022-12-08T01:55:15.713Z,43.60
2022-12-08T01:56:52.053Z,44.00
2022-12-08T01:57:16.221Z,43.80
2022-12-08T01:58:15.751Z,43.20
2022-12-08T01:59:15.951Z,42.70
2022-12-08T02:00:16.965Z,44.80
2022-12-08T02:01:15.906Z,46.40
2022-12-08T02:02:15.938Z,48.20
2022-12-08T02:03:15.915Z,45.10
2022-12-08T02:04:15.700Z,47.70
2022-12-08T02:05:16.059Z,45.20
2022-12-08T02:06:15.611Z,46.20
2022-12-08T02:07:15.925Z,46.20
2022-12-08T02:08:15.755Z,47.90
2022-12-08T02:09:16.307Z,45.80
2022-12-08T02:10:16.227Z,45.90
2022-12-08T02:11:16.083Z,44.40
2022-12-08T02:12:15.683Z,47.00
2022-12-08T02:13:15.624Z,45.90
2022-12-08T02:14:15.709Z,46.30
2022-12-08T02:15:15.604Z,47.30
2022-12-08T02:16:15.904Z,46.80
2022-12-08T02:17:15.804Z,49.40
2022-12-08T02:18:15.655Z,46.30
2022-12-08T02:19:31.570Z,47.30
2022-12-08T02:20:15.714Z,49.90
2022-12-08T02:21:15.737Z,46.40
2022-12-08T02:22:15.680Z,47.60
2022-12-08T02:23:16.063Z,46.50
2022-12-08T02:24:15.512Z,46.90
2022-12-08T02:25:15.721Z,45.70
2022-12-08T02:26:15.609Z,43.80
2022-12-08T02:27:16.431Z,47.30
2022-12-08T02:28:15.666Z,47.50
2022-12-08T02:29:15.940Z,47.70
2022-12-08T02:30:15.537Z,47.90
2022-12-08T02:31:15.807Z,47.80
2022-12-08T02:32:15.865Z,48.90
2022-12-08T02:33:15.573Z,46.30
2022-12-08T02:34:15.402Z,48.00
2022-12-08T02:35:15.608Z,49.70
2022-12-08T02:36:15.688Z,51.10
2022-12-08T02:37:15.894Z,49.20
2022-12-08T02:38:15.524Z,50.40
2022-12-08T02:39:15.639Z,48.60
2022-12-08T02:40:16.288Z,50.60
2022-12-08T02:41:15.405Z,51.30
2022-12-08T02:42:15.484Z,49.80
2022-12-08T02:43:15.221Z,51.80
2022-12-08T02:44:15.321Z,50.70
2022-12-08T02:45:15.408Z,55.40
2022-12-08T02:46:15.584Z,55.30
2022-12-08T02:47:15.233Z,54.20
2022-12-08T02:48:15.415Z,56.80
2022-12-08T02:49:15.241Z,54.10
2022-12-08T02:50:15.392Z,56.70
2022-12-08T02:51:15.350Z,56.90
2022-12-08T02:52:15.365Z,57.10
2022-12-08T02:53:59.398Z,59.70
2022-12-08T02:55:00.024Z,64.00
2022-12-08T02:55:59.583Z,58.50
2022-12-08T02:56:59.447Z,62.20
2022-12-08T02:57:59.480Z,61.40
2022-12-08T02:58:59.369Z,61.80
2022-12-08T02:59:59.614Z,63.30
2022-12-08T03:00:59.583Z,66.50
2022-12-08T03:01:59.579Z,64.20
2022-12-08T03:03:00.210Z,66.50
2022-12-08T03:03:59.471Z,66.60
2022-12-08T03:04:59.719Z,63.80
2022-12-08T03:05:59.538Z,69.00
2022-12-08T03:06:59.322Z,63.90
2022-12-08T03:07:59.351Z,67.60
2022-12-08T03:08:59.359Z,66.80
2022-12-08T03:09:59.587Z,69.20
2022-12-08T03:11:00.103Z,64.00
2022-12-08T03:11:59.665Z,66.90
2022-12-08T03:12:59.591Z,68.40
2022-12-08T03:14:01.158Z,67.20
2022-12-08T03:14:59.507Z,71.70
2022-12-08T03:15:59.439Z,73.10
2022-12-08T03:16:59.294Z,70.60
2022-12-08T03:17:59.496Z,72.50
2022-12-08T03:18:59.360Z,69.70
2022-12-08T03:19:59.230Z,72.60
2022-12-08T03:20:59.296Z,72.90
2022-12-08T03:22:00.111Z,75.40
2022-12-08T03:22:59.428Z,78.30
2022-12-08T03:23:59.516Z,75.40
2022-12-08T03:24:59.251Z,73.30
2022-12-08T03:25:59.316Z,71.10
2022-12-08T03:26:59.278Z,71.40
2022-12-08T03:27:59.215Z,78.50
2022-12-08T03:28:59.170Z,72.50
2022-12-08T03:29:59.235Z,74.00
2022-12-08T03:30:59.451Z,74.40
2022-12-08T03:31:59.487Z,75.60
2022-12-08T03:32:59.893Z,74.90
2022-12-08T03:33:59.727Z,78.10
2022-12-08T03:34:59.344Z,82.50
2022-12-08T03:35:59.735Z,79.30
2022-12-08T03:36:59.401Z,81.10
2022-12-08T03:38:58.353Z,78.30
2022-12-08T03:39:59.420Z,78.30
2022-12-08T03:40:59.344Z,79.00
2022-12-08T03:41:59.143Z,85.40
2022-12-08T03:42:59.177Z,78.20
2022-12-08T03:43:59.285Z,82.50
2022-12-08T03:44:59.180Z,85.10
2022-12-08T03:45:59.100Z,88.00
2022-12-08T03:46:59.161Z,85.80
2022-12-08T03:47:59.133Z,87.60
2022-12-08T03:48:59.103Z,88.20
2022-12-08T03:49:59.144Z,84.10
2022-12-08T03:50:59.151Z,85.90
2022-12-08T03:51:59.082Z,87.30
2022-12-08T03:52:59.029Z,90.90
2022-12-08T03:53:59.145Z,90.20
2022-12-08T03:54:59.069Z,95.30
2022-12-08T03:55:59.010Z,96.20
2022-12-08T03:56:59.001Z,94.30
2022-12-08T03:57:59.080Z,98.00
2022-12-08T03:58:59.038Z,93.20
2022-12-08T03:59:58.966Z,102.40
2022-12-08T04:00:59.001Z,94.00
2022-12-08T04:01:59.003Z,100.30
2022-12-08T04:02:59.050Z,94.30
2022-12-08T04:03:59.006Z,101.30
2022-12-08T04:04:58.925Z,97.00
2022-12-08T04:05:58.938Z,99.90
2022-12-08T04:06:58.874Z,97.70
2022-12-08T04:07:58.985Z,94.00
2022-12-08T04:08:58.864Z,96.40
2022-12-08T04:09:58.925Z,101.10
2022-12-08T04:10:58.890Z,105.00
2022-12-08T04:11:58.895Z,99.90
2022-12-08T04:12:58.839Z,102.60
2022-12-08T04:13:58.889Z,94.20
2022-12-08T04:14:58.811Z,96.80
2022-12-08T04:15:58.919Z,101.10
2022-12-08T04:16:58.807Z,96.20
2022-12-08T04:17:58.854Z,98.30
2022-12-08T04:18:58.771Z,99.80
2022-12-08T04:19:58.753Z,101.80
2022-12-08T04:20:58.722Z,95.90
2022-12-08T04:21:58.731Z,95.20
2022-12-08T04:22:58.743Z,101.50
2022-12-08T04:24:01.233Z,96.60
2022-12-08T04:24:58.751Z,95.00
2022-12-08T04:25:58.727Z,93.40
2022-12-08T04:26:58.722Z,100.10
2022-12-08T04:27:58.678Z,99.40
2022-12-08T04:28:58.704Z,99.60
2022-12-08T04:29:58.748Z,98.50
2022-12-08T04:30:58.713Z,100.30
2022-12-08T04:31:58.780Z,98.50
2022-12-08T04:32:58.680Z,99.10
2022-12-08T04:33:58.644Z,107.80
2022-12-08T04:34:58.633Z,105.40
2022-12-08T04:35:58.633Z,106.40
2022-12-08T04:36:58.584Z,99.40
2022-12-08T04:37:58.581Z,100.90
2022-12-08T04:38:58.628Z,102.10
2022-12-08T04:39:58.576Z,107.00
2022-12-08T04:40:58.532Z,101.20
2022-12-08T04:41:58.557Z,104.50
2022-12-08T04:42:58.556Z,107.20
2022-12-08T04:43:58.547Z,103.20
2022-12-08T04:44:58.508Z,101.50
2022-12-08T04:45:58.561Z,106.00
2022-12-08T04:46:58.560Z,104.30
2022-12-08T04:47:58.509Z,96.70
2022-12-08T04:48:58.492Z,98.00
2022-12-08T04:49:58.528Z,101.10
2022-12-08T04:50:58.460Z,101.00
2022-12-08T04:51:58.472Z,102.20
2022-12-08T04:52:58.446Z,105.50
2022-12-08T04:53:58.449Z,101.30
2022-12-08T04:54:58.428Z,95.00
2022-12-08T04:55:58.449Z,99.80
2022-12-08T04:56:58.380Z,99.10
2022-12-08T04:57:58.372Z,87.40
2022-12-08T04:58:58.489Z,94.40
2022-12-08T04:59:58.388Z,96.60
2022-12-08T05:00:58.501Z,100.30
2022-12-08T05:01:58.462Z,103.50
2022-12-08T05:02:58.429Z,96.90
2022-12-08T05:03:58.357Z,99.90
2022-12-08T05:04:58.305Z,92.10
2022-12-08T05:05:58.320Z,88.70
2022-12-08T05:06:58.294Z,92.10
2022-12-08T05:07:58.351Z,91.60
2022-12-08T05:08:58.360Z,87.00
2022-12-08T05:09:58.309Z,88.50
2022-12-08T05:10:58.260Z,88.30
2022-12-08T05:11:58.233Z,91.60
2022-12-08T05:12:58.208Z,91.00
2022-12-08T05:13:58.234Z,93.60
2022-12-08T05:14:58.239Z,90.60
2022-12-08T05:15:58.321Z,92.90
2022-12-08T05:16:58.201Z,89.50
2022-12-08T05:17:58.170Z,88.20
2022-12-08T05:18:58.144Z,82.90
2022-12-08T05:19:58.183Z,69.80
2022-12-08T05:20:58.146Z,71.70
2022-12-08T05:21:58.229Z,72.80
2022-12-08T05:22:58.144Z,76.50
2022-12-08T05:23:58.182Z,79.20
2022-12-08T05:24:58.205Z,78.50
2022-12-08T05:25:58.106Z,77.50
2022-12-08T05:26:58.111Z,75.70
2022-12-08T05:28:17.568Z,67.70
2022-12-08T05:28:58.092Z,70.10
2022-12-08T05:29:58.094Z,72.10
2022-12-08T05:30:58.022Z,76.90
2022-12-08T05:31:58.099Z,76.10
2022-12-08T05:32:58.061Z,71.30
2022-12-08T05:34:02.743Z,72.00
2022-12-08T05:34:58.009Z,71.90
2022-12-08T05:35:58.098Z,73.40
2022-12-08T05:36:57.963Z,72.40
2022-12-08T05:37:58.029Z,70.10
2022-12-08T05:38:57.975Z,73.70
2022-12-08T05:39:58.029Z,72.80
2022-12-08T05:40:57.943Z,75.50
2022-12-08T05:41:57.969Z,74.30
2022-12-08T05:42:57.907Z,77.00
2022-12-08T05:43:57.934Z,76.40
2022-12-08T05:44:57.882Z,78.00
2022-12-08T05:45:57.920Z,78.40
2022-12-08T05:46:57.875Z,77.20
2022-12-08T05:47:57.830Z,73.00
2022-12-08T05:48:57.969Z,69.80
2022-12-08T05:49:57.824Z,71.20
2022-12-08T05:50:57.843Z,73.30
2022-12-08T05:51:57.860Z,74.60
2022-12-08T05:52:57.877Z,73.30
2022-12-08T05:53:57.801Z,75.70
2022-12-08T05:54:57.787Z,76.00
2022-12-08T05:55:57.748Z,71.40
2022-12-08T05:56:57.784Z,74.00
2022-12-08T05:57:58.607Z,73.70
2022-12-08T05:58:57.714Z,71.60
2022-12-08T05:59:57.705Z,78.10
2022-12-08T06:00:57.686Z,73.00
2022-12-08T06:01:57.895Z,78.40
2022-12-08T06:02:57.879Z,75.60
2022-12-08T06:03:57.672Z,82.50
2022-12-08T06:04:57.670Z,77.60
2022-12-08T06:05:57.650Z,76.60
2022-12-08T06:06:57.648Z,77.90
2022-12-08T06:07:57.686Z,78.80
2022-12-08T06:08:57.614Z,76.30
2022-12-08T06:09:57.628Z,78.40
2022-12-08T06:10:57.594Z,75.60
2022-12-08T06:11:57.620Z,71.10
2022-12-08T06:12:57.583Z,76.70
2022-12-08T06:13:57.606Z,66.10
2022-12-08T06:14:57.573Z,68.80
2022-12-08T06:15:57.581Z,66.70
2022-12-08T06:16:57.619Z,64.90
2022-12-08T06:17:57.521Z,69.80
2022-12-08T06:18:57.542Z,74.80
2022-12-08T06:19:57.511Z,65.50
2022-12-08T06:20:57.502Z,58.40
2022-12-08T06:21:57.489Z,61.00
2022-12-08T06:22:57.459Z,64.00
2022-12-08T06:23:57.634Z,67.30
2022-12-08T06:24:57.457Z,61.60
2022-12-08T06:25:57.465Z,60.50
2022-12-08T06:26:57.437Z,61.80
2022-12-08T06:27:57.443Z,62.80
2022-12-08T06:28:57.428Z,62.70
2022-12-08T06:29:57.431Z,60.50
2022-12-08T06:30:57.402Z,54.60
2022-12-08T06:31:57.472Z,53.00
2022-12-08T06:32:57.372Z,49.10
2022-12-08T06:33:57.364Z,50.90
2022-12-08T06:34:57.337Z,50.30
2022-12-08T06:35:57.343Z,47.20
2022-12-08T06:36:57.333Z,45.70
2022-12-08T06:37:57.396Z,43.40
2022-12-08T06:38:57.305Z,44.90
2022-12-08T06:39:57.316Z,44.90
2022-12-08T06:41:03.749Z,45.70
2022-12-08T06:42:05.538Z,45.20
2022-12-08T06:42:58.435Z,47.30
2022-12-08T06:43:57.342Z,44.50
2022-12-08T06:44:57.254Z,44.90
2022-12-08T06:45:57.320Z,47.00
2022-12-08T06:46:57.257Z,38.30
2022-12-08T06:47:57.240Z,42.50
2022-12-08T06:48:57.271Z,38.70
2022-12-08T06:49:57.210Z,39.40
2022-12-08T06:50:57.206Z,35.30
2022-12-08T06:51:57.198Z,35.50
2022-12-08T06:53:04.797Z,37.70
2022-12-08T06:53:57.178Z,39.30
2022-12-08T06:54:57.101Z,41.90
2022-12-08T06:55:59.665Z,40.80
2022-12-08T06:56:57.072Z,41.20
2022-12-08T06:57:57.253Z,37.60
2022-12-08T06:58:57.071Z,39.20
2022-12-08T06:59:57.094Z,39.00
2022-12-08T07:00:57.111Z,40.00
2022-12-08T07:01:57.100Z,34.00
2022-12-08T07:02:57.150Z,31.60
2022-12-08T07:03:57.051Z,31.60
2022-12-08T07:04:57.022Z,32.60
2022-12-08T07:06:03.253Z,35.30
2022-12-08T07:06:56.996Z,33.30
2022-12-08T07:07:57.095Z,31.20
2022-12-08T07:08:56.984Z,33.20
2022-12-08T07:09:56.978Z,25.90
2022-12-08T07:10:56.929Z,27.90
2022-12-08T07:11:56.901Z,26.20
2022-12-08T07:12:56.905Z,27.70
2022-12-08T07:13:56.910Z,27.00
2022-12-08T07:14:56.888Z,25.80
2022-12-08T07:15:56.906Z,27.20
2022-12-08T07:16:56.993Z,24.10
2022-12-08T07:18:00.107Z,24.90
2022-12-08T07:18:56.855Z,26.90
2022-12-08T07:19:56.831Z,25.80
2022-12-08T07:20:56.810Z,26.40
2022-12-08T07:21:56.813Z,24.20
2022-12-08T07:22:57.040Z,24.30
2022-12-08T07:23:58.012Z,24.20
2022-12-08T07:24:56.768Z,23.40
2022-12-08T07:25:56.804Z,26.10
2022-12-08T07:26:56.803Z,22.70
2022-12-08T07:27:56.740Z,23.90
2022-12-08T07:28:56.749Z,24.00
2022-12-08T07:29:56.746Z,22.50
2022-12-08T07:30:56.748Z,21.80
2022-12-08T07:31:56.696Z,21.20
2022-12-08T07:32:56.714Z,20.60
2022-12-08T07:33:56.690Z,21.10
2022-12-08T07:34:56.670Z,21.00
2022-12-08T07:35:56.668Z,19.80
2022-12-08T07:36:56.644Z,21.20
2022-12-08T07:37:56.643Z,20.70
2022-12-08T07:38:56.679Z,20.10
2022-12-08T07:39:56.676Z,20.60
2022-12-08T07:40:56.630Z,22.20
2022-12-08T07:41:56.614Z,23.40
2022-12-08T07:42:56.625Z,25.90
2022-12-08T07:43:56.627Z,25.20
2022-12-08T07:44:56.576Z,23.10
2022-12-08T07:45:56.752Z,24.90
2022-12-08T07:46:56.554Z,24.00
2022-12-08T07:47:56.534Z,26.70
2022-12-08T07:48:56.610Z,27.10
2022-12-08T07:49:56.573Z,25.90
2022-12-08T07:50:56.504Z,27.40
2022-12-08T07:51:56.526Z,25.10
2022-12-08T07:52:56.508Z,28.60
2022-12-08T07:53:56.490Z,24.50
2022-12-08T07:54:56.481Z,26.00
2022-12-08T07:55:56.524Z,25.10
2022-12-08T07:56:56.450Z,24.90
2022-12-08T07:57:56.448Z,26.40
2022-12-08T07:58:56.447Z,25.60
2022-12-08T07:59:56.554Z,25.00
2022-12-08T08:00:56.518Z,23.90
2022-12-08T08:02:22.411Z,25.40
2022-12-08T08:02:56.504Z,23.50
2022-12-08T08:03:56.377Z,22.00
2022-12-08T08:04:56.418Z,21.50
2022-12-08T08:05:56.359Z,22.60
2022-12-08T08:06:56.354Z,21.40
2022-12-08T08:07:56.395Z,24.20
2022-12-08T08:08:56.349Z,22.70
2022-12-08T08:09:56.312Z,19.10
2022-12-08T08:10:56.333Z,20.70
2022-12-08T08:12:29.086Z,19.30
2022-12-08T08:12:56.317Z,19.80
2022-12-08T08:13:56.249Z,22.30
2022-12-08T08:14:56.286Z,15.40
2022-12-08T08:15:56.400Z,15.10
2022-12-08T08:16:56.523Z,14.30
2022-12-08T08:17:56.222Z,14.60
2022-12-08T08:18:56.256Z,13.40
2022-12-08T08:19:56.220Z,14.00
2022-12-08T08:20:57.979Z,14.60
2022-12-08T08:21:56.186Z,13.20
2022-12-08T08:22:56.176Z,13.00
2022-12-08T08:23:56.159Z,12.10
2022-12-08T08:24:56.230Z,12.60
2022-12-08T08:25:56.179Z,12.70
2022-12-08T08:26:56.142Z,11.20
2022-12-08T08:27:56.159Z,11.70
2022-12-08T08:28:56.126Z,14.90
2022-12-08T08:29:56.100Z,15.00
2022-12-08T08:30:56.138Z,11.90
2022-12-08T08:31:56.112Z,11.70
2022-12-08T08:32:56.063Z,9.90
2022-12-08T08:33:56.050Z,10.80
2022-12-08T08:34:56.123Z,9.50
2022-12-08T08:35:56.082Z,11.70
2022-12-08T08:36:56.069Z,11.80
2022-12-08T08:37:56.045Z,10.10
2022-12-08T08:38:56.017Z,10.50
2022-12-08T08:39:56.021Z,10.00
2022-12-08T08:40:56.026Z,11.10
2022-12-08T08:41:56.019Z,10.00
2022-12-08T08:42:55.988Z,10.60
2022-12-08T08:43:55.973Z,7.30
2022-12-08T08:44:56.048Z,9.90
2022-12-08T08:45:56.002Z,9.40
2022-12-08T08:46:55.986Z,9.30
2022-12-08T08:47:55.950Z,8.40
2022-12-08T08:48:55.988Z,10.00
2022-12-08T08:49:55.899Z,9.30
2022-12-08T08:50:55.923Z,11.00
2022-12-08T08:51:55.999Z,9.80
2022-12-08T08:52:55.893Z,9.00
2022-12-08T08:53:55.858Z,8.00
2022-12-08T08:54:55.881Z,8.40
2022-12-08T08:55:55.860Z,8.40
2022-12-08T08:56:55.836Z,8.80
2022-12-08T08:57:55.818Z,7.30
2022-12-08T08:58:55.878Z,8.00
2022-12-08T08:59:55.821Z,8.20
2022-12-08T09:00:55.820Z,7.30
2022-12-08T09:01:55.893Z,9.20
2022-12-08T09:02:55.806Z,8.40
2022-12-08T09:03:55.789Z,10.00
2022-12-08T09:04:55.838Z,9.10
2022-12-08T09:05:55.776Z,8.60
2022-12-08T09:06:55.742Z,9.10
2022-12-08T09:07:55.794Z,7.70
2022-12-08T09:08:55.709Z,7.70
2022-12-08T09:10:01.268Z,8.40
2022-12-08T09:10:55.746Z,8.00
2022-12-08T09:11:55.704Z,8.10
2022-12-08T09:12:55.679Z,9.50
2022-12-08T09:13:55.655Z,8.00
2022-12-08T09:14:55.690Z,8.40
2022-12-08T09:15:55.685Z,8.70
2022-12-08T09:16:55.628Z,8.20
2022-12-08T09:17:55.640Z,7.70
2022-12-08T09:18:55.610Z,7.80
2022-12-08T09:19:55.591Z,8.20
2022-12-08T09:20:55.681Z,9.10
2022-12-08T09:21:55.632Z,7.50
2022-12-08T09:22:55.579Z,7.70
2022-12-08T09:23:55.578Z,9.00
2022-12-08T09:24:55.592Z,7.40
2022-12-08T09:25:55.537Z,7.70
2022-12-08T09:26:55.531Z,7.40
2022-12-08T09:27:55.509Z,8.10
2022-12-08T09:28:55.516Z,8.90
2022-12-08T09:29:55.490Z,8.80
2022-12-08T09:30:55.567Z,9.10
2022-12-08T09:31:55.523Z,8.50
2022-12-08T09:32:55.465Z,8.70
2022-12-08T09:33:55.509Z,9.40
2022-12-08T09:34:55.494Z,10.30
2022-12-08T09:35:55.434Z,10.00
2022-12-08T09:36:55.436Z,9.40
2022-12-08T09:37:55.438Z,11.30
2022-12-08T09:38:55.430Z,9.00
2022-12-08T09:39:55.412Z,10.60
2022-12-08T09:40:55.397Z,11.10
2022-12-08T09:41:55.383Z,9.70
2022-12-08T09:42:55.362Z,10.80
2022-12-08T09:43:55.409Z,11.50
2022-12-08T09:44:55.357Z,11.30
2022-12-08T09:45:55.314Z,11.30
2022-12-08T09:46:55.403Z,12.00
2022-12-08T09:47:55.303Z,10.70
2022-12-08T09:48:55.304Z,11.90
2022-12-08T09:49:55.315Z,10.50
2022-12-08T09:50:55.291Z,10.30
2022-12-08T09:51:55.264Z,9.90
2022-12-08T09:52:55.253Z,10.80
2022-12-08T09:53:55.289Z,11.20
2022-12-08T09:54:55.231Z,9.30
2022-12-08T09:55:55.218Z,10.00
2022-12-08T09:56:55.235Z,10.80
2022-12-08T09:57:56.636Z,8.90
2022-12-08T09:58:55.193Z,9.90
2022-12-08T09:59:55.204Z,11.80
2022-12-08T10:00:55.190Z,10.80
2022-12-08T10:01:55.233Z,11.30
2022-12-08T10:02:55.141Z,10.70
2022-12-08T10:03:55.208Z,9.30
2022-12-08T10:04:55.195Z,10.10
2022-12-08T10:05:55.143Z,10.60
2022-12-08T10:06:55.126Z,9.80
2022-12-08T10:07:55.159Z,11.80
2022-12-08T10:08:55.110Z,12.30
2022-12-08T10:09:55.099Z,13.00
2022-12-08T10:10:55.105Z,11.10
2022-12-08T10:11:55.050Z,12.30
2022-12-08T10:12:55.076Z,13.60
2022-12-08T10:13:55.035Z,13.10
2022-12-08T10:14:55.047Z,11.40
2022-12-08T10:15:55.063Z,12.10
2022-12-08T10:16:55.069Z,12.90
2022-12-08T10:17:55.042Z,12.90
2022-12-08T10:18:54.982Z,12.30
2022-12-08T10:19:55.046Z,12.00
2022-12-08T10:20:55.031Z,13.30
2022-12-08T10:21:54.942Z,12.20
2022-12-08T10:22:54.995Z,14.30
2022-12-08T10:23:54.926Z,12.60
2022-12-08T10:24:54.919Z,13.80
2022-12-08T10:25:54.925Z,14.30
2022-12-08T10:26:54.932Z,15.60
2022-12-08T10:27:54.875Z,19.40
2022-12-08T10:28:54.882Z,19.50
2022-12-08T10:29:54.876Z,34.10
2022-12-08T10:30:54.978Z,22.90
2022-12-08T10:31:54.923Z,20.00
2022-12-08T10:32:54.875Z,19.20
2022-12-08T10:33:54.848Z,19.60
2022-12-08T10:34:56.401Z,19.30
2022-12-08T10:35:54.799Z,16.70
2022-12-08T10:36:54.872Z,19.10
2022-12-08T10:37:54.790Z,17.20
2022-12-08T10:38:54.787Z,16.10
2022-12-08T10:39:54.793Z,15.40
2022-12-08T10:40:54.756Z,17.40
2022-12-08T10:41:54.756Z,16.20
2022-12-08T10:42:54.792Z,17.20
2022-12-08T10:43:54.727Z,17.20
2022-12-08T10:44:54.712Z,16.40
2022-12-08T10:45:54.729Z,16.80
2022-12-08T10:46:54.837Z,21.40
2022-12-08T10:47:55.621Z,16.50
2022-12-08T10:48:54.675Z,17.30
2022-12-08T10:49:54.692Z,16.00
2022-12-08T10:50:54.659Z,16.10
2022-12-08T10:51:54.637Z,17.80
2022-12-08T10:52:54.651Z,16.40
2022-12-08T10:53:54.606Z,17.20
2022-12-08T10:54:54.629Z,17.10
2022-12-08T10:55:54.620Z,18.90
2022-12-08T10:56:54.608Z,18.30
2022-12-08T10:57:54.574Z,18.60
2022-12-08T10:58:54.590Z,17.20
2022-12-08T10:59:54.574Z,16.40
2022-12-08T11:00:54.623Z,18.10
2022-12-08T11:01:54.735Z,16.00
2022-12-08T11:02:54.635Z,15.30
2022-12-08T11:03:54.558Z,15.50
2022-12-08T11:04:54.509Z,16.30
2022-12-08T11:05:54.488Z,17.40
2022-12-08T11:06:54.549Z,15.40
2022-12-08T11:07:54.554Z,17.70
2022-12-08T11:08:54.508Z,15.90
2022-12-08T11:09:54.451Z,16.60
2022-12-08T11:10:54.449Z,13.40
2022-12-08T11:11:54.453Z,14.20
2022-12-08T11:12:54.464Z,14.00
2022-12-08T11:13:54.435Z,14.90
2022-12-08T11:14:54.421Z,16.20
2022-12-08T11:15:54.462Z,16.50
2022-12-08T11:16:54.473Z,16.80
2022-12-08T11:17:57.616Z,16.50
2022-12-08T11:18:54.394Z,15.50
2022-12-08T11:19:54.382Z,21.80
2022-12-08T11:20:54.365Z,21.10
2022-12-08T11:21:54.333Z,18.10
2022-12-08T11:22:54.320Z,13.80
2022-12-08T11:23:54.318Z,15.30
2022-12-08T11:24:54.343Z,13.90
2022-12-08T11:25:54.341Z,15.40
2022-12-08T11:26:54.320Z,16.10
2022-12-08T11:27:54.274Z,17.30
2022-12-08T11:28:54.295Z,17.30
2022-12-08T11:29:54.261Z,15.50
2022-12-08T11:30:54.252Z,16.50
2022-12-08T11:31:54.288Z,18.20
2022-12-08T11:32:54.229Z,16.70
2022-12-08T11:33:54.190Z,17.90
2022-12-08T11:34:54.214Z,16.50
2022-12-08T11:35:54.198Z,16.80
2022-12-08T11:36:54.200Z,17.00
2022-12-08T11:38:03.065Z,18.10
2022-12-08T11:38:54.167Z,17.00
2022-12-08T11:39:54.292Z,19.20
2022-12-08T11:40:54.197Z,19.70
2022-12-08T11:41:54.150Z,18.20
2022-12-08T11:42:54.165Z,19.50
2022-12-08T11:43:54.250Z,17.90
2022-12-08T11:44:54.177Z,17.50
2022-12-08T11:45:54.145Z,18.00
2022-12-08T11:46:54.138Z,17.20
2022-12-08T11:47:55.935Z,18.50
2022-12-08T11:48:54.161Z,18.40
2022-12-08T11:49:54.159Z,19.00
2022-12-08T11:50:54.078Z,17.20
2022-12-08T11:51:54.061Z,16.90
2022-12-08T11:52:54.191Z,18.30
2022-12-08T11:53:54.182Z,18.80
2022-12-08T11:54:54.089Z,17.80
2022-12-08T11:55:53.999Z,19.00
2022-12-08T11:56:53.980Z,18.00
2022-12-08T11:57:54.120Z,17.50
2022-12-08T11:58:54.769Z,18.30
2022-12-08T11:59:53.969Z,19.20
2022-12-08T12:00:54.051Z,18.60
2022-12-08T12:01:54.083Z,20.00
2022-12-08T12:02:53.949Z,16.80
2022-12-08T12:03:53.928Z,16.20
2022-12-08T12:04:53.971Z,15.40
2022-12-08T12:06:12.939Z,16.60
2022-12-08T12:06:55.439Z,17.30
2022-12-08T12:07:53.996Z,16.20
2022-12-08T12:08:53.908Z,16.80
2022-12-08T12:09:53.911Z,16.00
2022-12-08T12:10:53.867Z,17.30
2022-12-08T12:11:53.919Z,18.40
2022-12-08T12:12:54.764Z,17.90
2022-12-08T12:13:53.829Z,17.80
2022-12-08T12:14:53.824Z,20.50
2022-12-08T12:15:53.798Z,22.30
2022-12-08T12:16:54.020Z,21.00
2022-12-08T12:17:53.836Z,23.50
2022-12-08T12:18:53.902Z,19.80
2022-12-08T12:19:53.731Z,21.50
2022-12-08T12:20:53.700Z,21.60
2022-12-08T12:21:53.811Z,23.00
2022-12-08T12:22:53.712Z,21.20
2022-12-08T12:23:53.689Z,21.30
2022-12-08T12:24:53.815Z,20.90
2022-12-08T12:25:53.694Z,18.80
2022-12-08T12:26:53.668Z,19.50
2022-12-08T12:27:57.069Z,19.70
2022-12-08T12:28:53.734Z,21.40
2022-12-08T12:29:55.968Z,19.70
2022-12-08T12:30:53.708Z,22.10
2022-12-08T12:31:53.604Z,18.00
2022-12-08T12:32:53.605Z,21.20
2022-12-08T12:33:53.614Z,20.90
2022-12-08T12:34:53.574Z,21.10
2022-12-08T12:35:53.544Z,22.20
2022-12-08T12:36:53.570Z,20.10
2022-12-08T12:37:53.591Z,14.70
2022-12-08T12:38:53.565Z,14.40
2022-12-08T12:39:54.210Z,14.50
2022-12-08T12:40:53.542Z,14.60
2022-12-08T12:41:53.518Z,14.20
2022-12-08T12:42:53.542Z,13.60
2022-12-08T12:43:53.485Z,13.60
2022-12-08T12:44:53.523Z,14.10
2022-12-08T12:45:53.564Z,14.90
2022-12-08T12:46:53.439Z,13.10
2022-12-08T12:47:56.619Z,14.60
2022-12-08T12:48:53.440Z,13.50
2022-12-08T12:49:53.425Z,14.70
2022-12-08T12:50:53.459Z,15.10
2022-12-08T12:51:53.464Z,13.60
2022-12-08T12:52:53.367Z,14.70
2022-12-08T12:53:53.423Z,16.70
2022-12-08T12:54:53.401Z,14.30
2022-12-08T12:55:53.381Z,13.10